sensor_id;sensor_type;location;lat;lon;timestamp;pressure;altitude;pressure_sealevel;temperature;humidity
54806;BME280;62866;55.776;37.496;2023-02-28T00:00:44;100304.22;;;-6.48;82.13
54806;BME280;62866;55.776;37.496;2023-02-28T00:03:09;100311.97;;;-6.28;82.05
54806;BME280;62866;55.776;37.496;2023-02-28T00:05:35;100314.84;;;-6.16;81.92
54806;BME280;62866;55.776;37.496;2023-02-28T00:08:00;100308.94;;;-6.19;81.72
54806;BME280;62866;55.776;37.496;2023-02-28T00:10:29;100307.59;;;-6.09;81.39
54806;BME280;62866;55.776;37.496;2023-02-28T00:12:58;100310.19;;;-6.09;81.20
54806;BME280;62866;55.776;37.496;2023-02-28T00:15:25;100297.72;;;-6.20;81.26
54806;BME280;62866;55.776;37.496;2023-02-28T00:17:50;100289.13;;;-6.22;81.35
54806;BME280;62866;55.776;37.496;2023-02-28T00:20:16;100298.31;;;-6.15;81.57
54806;BME280;62866;55.776;37.496;2023-02-28T00:22:47;100287.84;;;-6.13;81.36
54806;BME280;62866;55.776;37.496;2023-02-28T00:25:15;100286.44;;;-6.20;80.94
54806;BME280;62866;55.776;37.496;2023-02-28T00:27:42;100289.25;;;-6.25;81.06
54806;BME280;62866;55.776;37.496;2023-02-28T00:30:14;100294.38;;;-6.23;81.42
54806;BME280;62866;55.776;37.496;2023-02-28T00:32:40;100286.81;;;-6.28;81.05
54806;BME280;62866;55.776;37.496;2023-02-28T00:35:07;100280.88;;;-6.31;81.34
54806;BME280;62866;55.776;37.496;2023-02-28T00:37:33;100294.25;;;-6.20;81.26
54806;BME280;62866;55.776;37.496;2023-02-28T00:39:59;100275.63;;;-6.30;80.85
54806;BME280;62866;55.776;37.496;2023-02-28T00:42:25;100280.88;;;-6.31;80.71
54806;BME280;62866;55.776;37.496;2023-02-28T00:44:50;100286.38;;;-6.37;80.79
54806;BME280;62866;55.776;37.496;2023-02-28T00:47:16;100275.53;;;-6.47;80.99
54806;BME280;62866;55.776;37.496;2023-02-28T00:49:42;100272.16;;;-6.49;81.14
54806;BME280;62866;55.776;37.496;2023-02-28T00:52:07;100247.69;;;-6.64;81.46
54806;BME280;62866;55.776;37.496;2023-02-28T00:54:33;100271.31;;;-6.49;81.28
54806;BME280;62866;55.776;37.496;2023-02-28T00:56:58;100270.41;;;-6.48;81.34
54806;BME280;62866;55.776;37.496;2023-02-28T00:59:24;100261.69;;;-6.47;81.18
54806;BME280;62866;55.776;37.496;2023-02-28T01:01:50;100243.44;;;-6.46;81.09
54806;BME280;62866;55.776;37.496;2023-02-28T01:04:15;100254.94;;;-6.33;80.87
54806;BME280;62866;55.776;37.496;2023-02-28T01:06:41;100249.97;;;-6.37;80.55
54806;BME280;62866;55.776;37.496;2023-02-28T01:09:07;100248.22;;;-6.37;80.74
54806;BME280;62866;55.776;37.496;2023-02-28T01:11:33;100239.25;;;-6.31;80.76
54806;BME280;62866;55.776;37.496;2023-02-28T01:14:00;100225.97;;;-6.44;80.51
54806;BME280;62866;55.776;37.496;2023-02-28T01:16:26;100222.63;;;-6.46;80.82
54806;BME280;62866;55.776;37.496;2023-02-28T01:18:52;100216.50;;;-6.45;81.26
54806;BME280;62866;55.776;37.496;2023-02-28T01:21:19;100215.50;;;-6.42;80.88
54806;BME280;62866;55.776;37.496;2023-02-28T01:23:45;100204.84;;;-6.55;80.90
54806;BME280;62866;55.776;37.496;2023-02-28T01:26:14;100185.22;;;-6.62;81.31
54806;BME280;62866;55.776;37.496;2023-02-28T01:28:40;100199.69;;;-6.57;80.79
54806;BME280;62866;55.776;37.496;2023-02-28T01:31:06;100196.19;;;-6.74;81.45
54806;BME280;62866;55.776;37.496;2023-02-28T01:33:32;100197.44;;;-6.83;81.46
54806;BME280;62866;55.776;37.496;2023-02-28T01:36:03;100194.56;;;-6.77;81.59
54806;BME280;62866;55.776;37.496;2023-02-28T01:38:29;100180.44;;;-6.71;81.24
54806;BME280;62866;55.776;37.496;2023-02-28T01:40:55;100181.47;;;-6.75;81.14
54806;BME280;62866;55.776;37.496;2023-02-28T01:43:31;100175.59;;;-6.79;80.93
54806;BME280;62866;55.776;37.496;2023-02-28T01:45:58;100165.69;;;-6.90;81.10
54806;BME280;62866;55.776;37.496;2023-02-28T01:48:32;100161.53;;;-6.94;80.88
54806;BME280;62866;55.776;37.496;2023-02-28T01:51:05;100132.94;;;-7.12;81.05
54806;BME280;62866;55.776;37.496;2023-02-28T01:53:37;100148.13;;;-7.03;81.19
54806;BME280;62866;55.776;37.496;2023-02-28T01:56:05;100135.53;;;-7.12;81.03
54806;BME280;62866;55.776;37.496;2023-02-28T01:58:34;100143.53;;;-7.17;81.36
54806;BME280;62866;55.776;37.496;2023-02-28T02:01:01;100139.47;;;-7.22;81.58
54806;BME280;62866;55.776;37.496;2023-02-28T02:03:29;100128.22;;;-7.23;81.62
54806;BME280;62866;55.776;37.496;2023-02-28T02:05:55;100133.41;;;-7.23;81.91
54806;BME280;62866;55.776;37.496;2023-02-28T02:08:23;100126.59;;;-7.25;81.67
54806;BME280;62866;55.776;37.496;2023-02-28T02:10:55;100119.94;;;-7.31;81.70
54806;BME280;62866;55.776;37.496;2023-02-28T02:16:08;100114.63;;;-7.28;82.00
54806;BME280;62866;55.776;37.496;2023-02-28T02:18:48;100123.59;;;-7.16;82.45
54806;BME280;62866;55.776;37.496;2023-02-28T02:27:02;100109.06;;;-7.20;81.90
54806;BME280;62866;55.776;37.496;2023-02-28T02:35:35;100093.97;;;-7.31;82.14
54806;BME280;62866;55.776;37.496;2023-02-28T02:38:09;100106.09;;;-7.32;82.03
54806;BME280;62866;55.776;37.496;2023-02-28T02:40:46;100096.84;;;-7.37;82.03
54806;BME280;62866;55.776;37.496;2023-02-28T02:43:25;100088.25;;;-7.39;82.25
54806;BME280;62866;55.776;37.496;2023-02-28T02:46:06;100080.59;;;-7.42;82.21
54806;BME280;62866;55.776;37.496;2023-02-28T02:48:34;100064.16;;;-7.43;82.19
54806;BME280;62866;55.776;37.496;2023-02-28T02:51:07;100040.72;;;-7.60;82.69
54806;BME280;62866;55.776;37.496;2023-02-28T02:56:28;100059.19;;;-7.47;82.58
54806;BME280;62866;55.776;37.496;2023-02-28T02:58:58;100048.09;;;-7.51;82.81
54806;BME280;62866;55.776;37.496;2023-02-28T03:01:27;100047.31;;;-7.53;82.56
54806;BME280;62866;55.776;37.496;2023-02-28T03:04:00;100049.78;;;-7.50;82.98
54806;BME280;62866;55.776;37.496;2023-02-28T03:06:28;100034.16;;;-7.48;82.86
54806;BME280;62866;55.776;37.496;2023-02-28T03:08:53;100031.19;;;-7.59;82.66
54806;BME280;62866;55.776;37.496;2023-02-28T03:11:19;100031.13;;;-7.58;82.84
54806;BME280;62866;55.776;37.496;2023-02-28T03:13:52;100025.84;;;-7.56;82.65
54806;BME280;62866;55.776;37.496;2023-02-28T03:16:34;100012.31;;;-7.63;82.70
54806;BME280;62866;55.776;37.496;2023-02-28T03:21:38;100022.28;;;-7.54;82.78
54806;BME280;62866;55.776;37.496;2023-02-28T03:24:08;100014.50;;;-7.54;82.79
54806;BME280;62866;55.776;37.496;2023-02-28T03:26:40;100007.81;;;-7.59;82.79
54806;BME280;62866;55.776;37.496;2023-02-28T03:29:39;100000.09;;;-7.61;82.95
54806;BME280;62866;55.776;37.496;2023-02-28T03:32:17;99993.31;;;-7.63;82.96
54806;BME280;62866;55.776;37.496;2023-02-28T03:37:27;99982.19;;;-7.67;82.54
54806;BME280;62866;55.776;37.496;2023-02-28T03:40:04;99990.06;;;-7.69;82.62
54806;BME280;62866;55.776;37.496;2023-02-28T03:42:35;99973.13;;;-7.77;82.85
54806;BME280;62866;55.776;37.496;2023-02-28T03:45:10;99990.84;;;-7.67;82.85
54806;BME280;62866;55.776;37.496;2023-02-28T03:48:13;99986.41;;;-7.64;82.80
54806;BME280;62866;55.776;37.496;2023-02-28T03:50:43;99966.91;;;-7.73;82.78
54806;BME280;62866;55.776;37.496;2023-02-28T03:53:25;99971.03;;;-7.69;82.92
54806;BME280;62866;55.776;37.496;2023-02-28T03:55:59;99963.34;;;-7.71;82.52
54806;BME280;62866;55.776;37.496;2023-02-28T03:58:35;99964.25;;;-7.72;82.78
54806;BME280;62866;55.776;37.496;2023-02-28T04:01:12;99939.19;;;-7.73;83.03
54806;BME280;62866;55.776;37.496;2023-02-28T04:03:40;99937.22;;;-7.68;82.66
54806;BME280;62866;55.776;37.496;2023-02-28T04:06:08;99938.97;;;-7.68;82.50
54806;BME280;62866;55.776;37.496;2023-02-28T04:08:38;99932.03;;;-7.68;82.57
54806;BME280;62866;55.776;37.496;2023-02-28T04:11:08;99926.84;;;-7.68;82.51
54806;BME280;62866;55.776;37.496;2023-02-28T04:13:40;99910.72;;;-7.74;82.60
54806;BME280;62866;55.776;37.496;2023-02-28T04:16:09;99933.66;;;-7.65;82.72
54806;BME280;62866;55.776;37.496;2023-02-28T04:18:39;99926.59;;;-7.61;82.40
54806;BME280;62866;55.776;37.496;2023-02-28T04:21:06;99940.25;;;-7.58;82.43
54806;BME280;62866;55.776;37.496;2023-02-28T04:23:31;99927.41;;;-7.61;82.24
54806;BME280;62866;55.776;37.496;2023-02-28T04:25:57;99930.09;;;-7.62;82.07
54806;BME280;62866;55.776;37.496;2023-02-28T04:28:23;99931.78;;;-7.61;82.31
54806;BME280;62866;55.776;37.496;2023-02-28T04:31:02;99915.84;;;-7.54;82.17
54806;BME280;62866;55.776;37.496;2023-02-28T04:33:28;99918.28;;;-7.51;82.12
54806;BME280;62866;55.776;37.496;2023-02-28T04:36:03;99917.84;;;-7.42;82.00
54806;BME280;62866;55.776;37.496;2023-02-28T04:38:32;99912.66;;;-7.42;82.07
54806;BME280;62866;55.776;37.496;2023-02-28T04:40:59;99911.38;;;-7.33;81.65
54806;BME280;62866;55.776;37.496;2023-02-28T04:43:26;99910.44;;;-7.32;81.07
54806;BME280;62866;55.776;37.496;2023-02-28T04:45:52;99893.81;;;-7.28;81.36
54806;BME280;62866;55.776;37.496;2023-02-28T04:48:18;99885.78;;;-7.23;81.15
54806;BME280;62866;55.776;37.496;2023-02-28T04:50:43;99885.66;;;-7.20;80.71
54806;BME280;62866;55.776;37.496;2023-02-28T04:53:09;99868.66;;;-7.28;80.45
54806;BME280;62866;55.776;37.496;2023-02-28T04:55:34;99889.56;;;-7.12;80.35
54806;BME280;62866;55.776;37.496;2023-02-28T04:58:00;99881.75;;;-7.12;80.10
54806;BME280;62866;55.776;37.496;2023-02-28T05:00:25;99873.97;;;-7.12;79.76
54806;BME280;62866;55.776;37.496;2023-02-28T05:02:51;99870.16;;;-7.05;79.42
54806;BME280;62866;55.776;37.496;2023-02-28T05:05:16;99859.44;;;-6.99;79.41
54806;BME280;62866;55.776;37.496;2023-02-28T05:07:44;99849.03;;;-6.81;78.82
54806;BME280;62866;55.776;37.496;2023-02-28T05:10:10;99837.84;;;-6.66;78.27
54806;BME280;62866;55.776;37.496;2023-02-28T05:12:36;99845.16;;;-6.57;77.93
54806;BME280;62866;55.776;37.496;2023-02-28T05:15:03;99832.88;;;-6.54;77.62
54806;BME280;62866;55.776;37.496;2023-02-28T05:17:30;99827.25;;;-6.46;76.90
54806;BME280;62866;55.776;37.496;2023-02-28T05:19:55;99826.84;;;-6.38;76.65
54806;BME280;62866;55.776;37.496;2023-02-28T05:22:21;99826.50;;;-6.32;76.05
54806;BME280;62866;55.776;37.496;2023-02-28T05:24:47;99806.81;;;-6.21;75.72
54806;BME280;62866;55.776;37.496;2023-02-28T05:27:12;99806.78;;;-5.44;75.51
54806;BME280;62866;55.776;37.496;2023-02-28T05:29:38;99800.22;;;-4.91;73.44
54806;BME280;62866;55.776;37.496;2023-02-28T05:32:11;99790.47;;;-4.59;70.99
54806;BME280;62866;55.776;37.496;2023-02-28T05:34:38;99790.19;;;-4.40;71.34
54806;BME280;62866;55.776;37.496;2023-02-28T05:37:05;99800.53;;;-3.84;69.53
54806;BME280;62866;55.776;37.496;2023-02-28T05:39:30;99771.88;;;-3.71;68.34
54806;BME280;62866;55.776;37.496;2023-02-28T05:41:56;99780.88;;;-3.35;68.76
54806;BME280;62866;55.776;37.496;2023-02-28T05:44:22;99759.88;;;-3.09;67.66
54806;BME280;62866;55.776;37.496;2023-02-28T05:46:47;99742.16;;;-2.42;66.58
54806;BME280;62866;55.776;37.496;2023-02-28T05:49:13;99762.31;;;-1.58;64.79
54806;BME280;62866;55.776;37.496;2023-02-28T05:51:38;99742.59;;;-0.94;65.93
54806;BME280;62866;55.776;37.496;2023-02-28T05:54:05;99746.09;;;-0.60;62.92
54806;BME280;62866;55.776;37.496;2023-02-28T05:56:31;99730.81;;;-0.77;61.48
54806;BME280;62866;55.776;37.496;2023-02-28T05:58:57;99708.94;;;-0.22;60.54
54806;BME280;62866;55.776;37.496;2023-02-28T06:01:49;99737.25;;;-0.81;60.54
54806;BME280;62866;55.776;37.496;2023-02-28T06:04:17;99732.66;;;-1.12;61.09
54806;BME280;62866;55.776;37.496;2023-02-28T06:06:48;99723.75;;;-1.10;61.48
54806;BME280;62866;55.776;37.496;2023-02-28T06:09:14;99712.91;;;-1.51;62.22
54806;BME280;62866;55.776;37.496;2023-02-28T06:11:40;99695.00;;;-1.11;60.98
54806;BME280;62866;55.776;37.496;2023-02-28T06:14:06;99703.91;;;-0.25;59.70
54806;BME280;62866;55.776;37.496;2023-02-28T06:16:33;99695.50;;;-0.51;59.69
54806;BME280;62866;55.776;37.496;2023-02-28T06:19:02;99689.63;;;-0.65;59.79
54806;BME280;62866;55.776;37.496;2023-02-28T06:21:28;99689.63;;;-0.99;60.84
54806;BME280;62866;55.776;37.496;2023-02-28T06:23:55;99683.06;;;-1.04;60.32
54806;BME280;62866;55.776;37.496;2023-02-28T06:26:21;99674.94;;;-1.12;60.96
54806;BME280;62866;55.776;37.496;2023-02-28T06:28:47;99665.84;;;-1.31;59.54
54806;BME280;62866;55.776;37.496;2023-02-28T06:31:16;99673.63;;;-1.29;59.67
54806;BME280;62866;55.776;37.496;2023-02-28T06:33:43;99654.56;;;-1.09;58.92
54806;BME280;62866;55.776;37.496;2023-02-28T06:36:10;99660.03;;;-1.23;59.41
54806;BME280;62866;55.776;37.496;2023-02-28T06:38:38;99665.72;;;-1.75;59.80
54806;BME280;62866;55.776;37.496;2023-02-28T06:41:04;99662.53;;;-2.03;60.58
54806;BME280;62866;55.776;37.496;2023-02-28T06:43:34;99648.63;;;-2.16;60.48
54806;BME280;62866;55.776;37.496;2023-02-28T06:46:02;99644.88;;;-2.12;60.63
54806;BME280;62866;55.776;37.496;2023-02-28T06:48:27;99641.84;;;-1.95;60.38
54806;BME280;62866;55.776;37.496;2023-02-28T06:51:16;99624.88;;;-1.78;59.26
54806;BME280;62866;55.776;37.496;2023-02-28T06:53:42;99630.22;;;-1.79;59.69
54806;BME280;62866;55.776;37.496;2023-02-28T06:56:10;99591.03;;;-2.16;59.31
54806;BME280;62866;55.776;37.496;2023-02-28T06:58:37;99588.41;;;-2.40;59.65
54806;BME280;62866;55.776;37.496;2023-02-28T07:01:03;99593.63;;;-2.16;59.87
54806;BME280;62866;55.776;37.496;2023-02-28T07:03:29;99578.56;;;-2.12;59.92
54806;BME280;62866;55.776;37.496;2023-02-28T07:05:55;99572.22;;;-2.45;60.86
54806;BME280;62866;55.776;37.496;2023-02-28T07:08:22;99573.50;;;-2.26;61.20
54806;BME280;62866;55.776;37.496;2023-02-28T07:10:52;99571.16;;;-2.18;60.95
54806;BME280;62866;55.776;37.496;2023-02-28T07:13:18;99561.88;;;-2.11;61.52
54806;BME280;62866;55.776;37.496;2023-02-28T07:15:43;99559.28;;;-2.00;61.08
54806;BME280;62866;55.776;37.496;2023-02-28T07:18:09;99561.22;;;-1.91;61.47
54806;BME280;62866;55.776;37.496;2023-02-28T07:20:35;99541.84;;;-1.77;61.95
54806;BME280;62866;55.776;37.496;2023-02-28T07:23:00;99545.16;;;-1.75;61.15
54806;BME280;62866;55.776;37.496;2023-02-28T07:25:27;99552.47;;;-1.68;61.32
54806;BME280;62866;55.776;37.496;2023-02-28T07:27:54;99538.75;;;-1.71;60.88
54806;BME280;62866;55.776;37.496;2023-02-28T07:30:20;99540.66;;;-1.73;61.47
54806;BME280;62866;55.776;37.496;2023-02-28T07:32:46;99530.53;;;-1.78;61.85
54806;BME280;62866;55.776;37.496;2023-02-28T07:35:12;99528.06;;;-1.46;61.90
54806;BME280;62866;55.776;37.496;2023-02-28T07:37:41;99503.84;;;-1.49;61.46
54806;BME280;62866;55.776;37.496;2023-02-28T07:40:09;99520.31;;;-1.36;62.13
54806;BME280;62866;55.776;37.496;2023-02-28T07:42:37;99506.72;;;-1.41;62.05
54806;BME280;62866;55.776;37.496;2023-02-28T07:45:03;99510.28;;;-1.09;61.64
54806;BME280;62866;55.776;37.496;2023-02-28T07:47:30;99511.31;;;-1.00;61.58
54806;BME280;62866;55.776;37.496;2023-02-28T07:49:56;99499.78;;;-1.09;61.03
54806;BME280;62866;55.776;37.496;2023-02-28T07:52:22;99507.84;;;-0.90;61.28
54806;BME280;62866;55.776;37.496;2023-02-28T07:54:49;99501.50;;;-0.87;60.78
54806;BME280;62866;55.776;37.496;2023-02-28T07:57:15;99496.91;;;-1.06;61.23
54806;BME280;62866;55.776;37.496;2023-02-28T07:59:41;99512.69;;;-1.28;62.13
54806;BME280;62866;55.776;37.496;2023-02-28T08:02:08;99506.94;;;-1.33;62.03
54806;BME280;62866;55.776;37.496;2023-02-28T08:04:35;99506.09;;;-1.23;61.80
54806;BME280;62866;55.776;37.496;2023-02-28T08:07:01;99492.03;;;-1.22;61.96
54806;BME280;62866;55.776;37.496;2023-02-28T08:09:26;99486.91;;;-1.23;62.05
54806;BME280;62866;55.776;37.496;2023-02-28T08:11:52;99478.81;;;-1.20;62.19
54806;BME280;62866;55.776;37.496;2023-02-28T08:14:17;99477.13;;;-1.32;62.96
54806;BME280;62866;55.776;37.496;2023-02-28T08:16:43;99460.56;;;-1.33;62.55
54806;BME280;62866;55.776;37.496;2023-02-28T08:19:08;99454.50;;;-1.33;63.21
54806;BME280;62866;55.776;37.496;2023-02-28T08:21:34;99446.16;;;-1.27;63.37
54806;BME280;62866;55.776;37.496;2023-02-28T08:24:00;99423.75;;;-1.31;63.27
54806;BME280;62866;55.776;37.496;2023-02-28T08:26:26;99424.22;;;-1.26;63.30
54806;BME280;62866;55.776;37.496;2023-02-28T08:28:51;99424.47;;;-1.29;63.12
54806;BME280;62866;55.776;37.496;2023-02-28T08:31:18;99421.50;;;-1.36;63.96
54806;BME280;62866;55.776;37.496;2023-02-28T08:33:44;99418.16;;;-1.38;63.96
54806;BME280;62866;55.776;37.496;2023-02-28T08:36:11;99461.19;;;-1.40;64.67
54806;BME280;62866;55.776;37.496;2023-02-28T08:38:37;99491.34;;;-1.35;64.60
54806;BME280;62866;55.776;37.496;2023-02-28T08:41:08;99497.78;;;-1.39;64.85
54806;BME280;62866;55.776;37.496;2023-02-28T08:43:35;99485.72;;;-1.41;65.18
54806;BME280;62866;55.776;37.496;2023-02-28T08:46:01;99489.56;;;-1.57;65.66
54806;BME280;62866;55.776;37.496;2023-02-28T08:48:28;99479.88;;;-1.67;66.11
54806;BME280;62866;55.776;37.496;2023-02-28T08:50:56;99475.38;;;-1.76;66.08
54806;BME280;62866;55.776;37.496;2023-02-28T08:53:21;99462.03;;;-1.73;66.08
54806;BME280;62866;55.776;37.496;2023-02-28T08:55:47;99457.28;;;-1.79;66.45
54806;BME280;62866;55.776;37.496;2023-02-28T08:58:12;99465.13;;;-1.79;66.94
54806;BME280;62866;55.776;37.496;2023-02-28T09:00:38;99443.19;;;-1.89;66.90
54806;BME280;62866;55.776;37.496;2023-02-28T09:03:03;99451.91;;;-1.78;67.55
54806;BME280;62866;55.776;37.496;2023-02-28T09:05:29;99435.69;;;-1.83;67.69
54806;BME280;62866;55.776;37.496;2023-02-28T09:07:55;99439.03;;;-1.81;67.67
54806;BME280;62866;55.776;37.496;2023-02-28T09:10:20;99418.81;;;-1.68;67.93
54806;BME280;62866;55.776;37.496;2023-02-28T09:12:46;99417.72;;;-1.65;67.50
54806;BME280;62866;55.776;37.496;2023-02-28T09:15:12;99414.50;;;-1.69;67.83
54806;BME280;62866;55.776;37.496;2023-02-28T09:17:38;99417.72;;;-1.54;67.64
54806;BME280;62866;55.776;37.496;2023-02-28T09:20:04;99410.06;;;-1.35;67.33
54806;BME280;62866;55.776;37.496;2023-02-28T09:22:30;99387.72;;;-1.18;66.50
54806;BME280;62866;55.776;37.496;2023-02-28T09:24:56;99391.97;;;-1.17;66.88
54806;BME280;62866;55.776;37.496;2023-02-28T09:27:21;99404.16;;;-1.16;66.85
54806;BME280;62866;55.776;37.496;2023-02-28T09:29:47;99402.34;;;-1.04;66.85
54806;BME280;62866;55.776;37.496;2023-02-28T09:32:12;99414.91;;;-0.87;66.33
54806;BME280;62866;55.776;37.496;2023-02-28T09:34:38;99414.66;;;-0.84;66.48
54806;BME280;62866;55.776;37.496;2023-02-28T09:37:04;99417.78;;;-0.90;66.36
54806;BME280;62866;55.776;37.496;2023-02-28T09:39:29;99416.19;;;-1.13;66.39
54806;BME280;62866;55.776;37.496;2023-02-28T09:41:55;99410.53;;;-1.41;67.62
54806;BME280;62866;55.776;37.496;2023-02-28T09:44:43;99400.97;;;-1.31;67.50
54806;BME280;62866;55.776;37.496;2023-02-28T09:49:51;99382.81;;;-1.23;67.35
54806;BME280;62866;55.776;37.496;2023-02-28T09:52:19;99391.94;;;-1.38;68.11
54806;BME280;62866;55.776;37.496;2023-02-28T09:54:45;99371.69;;;-1.47;68.21
54806;BME280;62866;55.776;37.496;2023-02-28T09:57:21;99365.16;;;-1.52;68.35
54806;BME280;62866;55.776;37.496;2023-02-28T10:00:24;99348.94;;;-1.46;68.05
54806;BME280;62866;55.776;37.496;2023-02-28T10:03:56;99369.72;;;-1.23;68.07
54806;BME280;62866;55.776;37.496;2023-02-28T10:06:18;99351.84;;;-1.18;67.45
54806;BME280;62866;55.776;37.496;2023-02-28T10:11:20;99342.66;;;-1.23;68.17
54806;BME280;62866;55.776;37.496;2023-02-28T10:13:58;99330.66;;;-1.26;67.98
54806;BME280;62866;55.776;37.496;2023-02-28T10:20:09;99327.94;;;-1.15;68.18
54806;BME280;62866;55.776;37.496;2023-02-28T10:22:27;99331.41;;;-1.14;68.26
54806;BME280;62866;55.776;37.496;2023-02-28T10:24:55;99310.31;;;-1.12;68.70
54806;BME280;62866;55.776;37.496;2023-02-28T10:27:29;99309.72;;;-1.16;68.97
54806;BME280;62866;55.776;37.496;2023-02-28T10:29:58;99309.22;;;-1.10;68.90
54806;BME280;62866;55.776;37.496;2023-02-28T10:32:33;99301.47;;;-1.11;68.94
54806;BME280;62866;55.776;37.496;2023-02-28T10:35:26;99301.09;;;-1.07;69.03
54806;BME280;62866;55.776;37.496;2023-02-28T10:37:58;99290.03;;;-1.10;68.94
54806;BME280;62866;55.776;37.496;2023-02-28T10:40:26;99306.84;;;-1.13;69.23
54806;BME280;62866;55.776;37.496;2023-02-28T10:45:28;99291.22;;;-1.35;69.64
54806;BME280;62866;55.776;37.496;2023-02-28T10:48:00;99290.31;;;-1.25;69.59
54806;BME280;62866;55.776;37.496;2023-02-28T10:56:04;99276.41;;;-1.04;68.98
54806;BME280;62866;55.776;37.496;2023-02-28T11:01:18;99273.84;;;-0.95;69.15
54806;BME280;62866;55.776;37.496;2023-02-28T11:03:44;99273.97;;;-0.96;69.16
54806;BME280;62866;55.776;37.496;2023-02-28T11:06:25;99260.22;;;-1.09;69.68
54806;BME280;62866;55.776;37.496;2023-02-28T11:08:54;99257.41;;;-1.18;69.87
54806;BME280;62866;55.776;37.496;2023-02-28T11:11:21;99253.78;;;-1.17;70.19
54806;BME280;62866;55.776;37.496;2023-02-28T11:13:51;99250.16;;;-1.25;70.75
54806;BME280;62866;55.776;37.496;2023-02-28T11:16:18;99256.94;;;-1.23;70.54
54806;BME280;62866;55.776;37.496;2023-02-28T11:18:54;99257.72;;;-1.11;70.56
54806;BME280;62866;55.776;37.496;2023-02-28T11:24:05;99247.41;;;-1.24;70.93
54806;BME280;62866;55.776;37.496;2023-02-28T11:26:42;99216.00;;;-1.35;71.15
54806;BME280;62866;55.776;37.496;2023-02-28T11:31:40;99251.78;;;-0.92;70.25
54806;BME280;62866;55.776;37.496;2023-02-28T11:34:24;99244.28;;;-0.97;70.72
54806;BME280;62866;55.776;37.496;2023-02-28T11:36:51;99239.91;;;-0.87;70.93
54806;BME280;62866;55.776;37.496;2023-02-28T11:39:17;99234.25;;;-0.82;71.16
54806;BME280;62866;55.776;37.496;2023-02-28T11:44:37;99222.16;;;-0.73;73.09
54806;BME280;62866;55.776;37.496;2023-02-28T11:55:25;99223.34;;;-0.87;75.67
54806;BME280;62866;55.776;37.496;2023-02-28T12:08:53;99200.91;;;-1.22;77.76
54806;BME280;62866;55.776;37.496;2023-02-28T12:11:48;99198.34;;;-1.33;78.51
54806;BME280;62866;55.776;37.496;2023-02-28T12:17:38;99209.47;;;-1.40;79.31
54806;BME280;62866;55.776;37.496;2023-02-28T12:20:37;99186.44;;;-1.58;79.32
54806;BME280;62866;55.776;37.496;2023-02-28T12:26:14;99198.25;;;-1.63;80.18
54806;BME280;62866;55.776;37.496;2023-02-28T12:28:51;99197.53;;;-1.65;80.89
54806;BME280;62866;55.776;37.496;2023-02-28T12:31:24;99185.66;;;-1.69;81.48
54806;BME280;62866;55.776;37.496;2023-02-28T12:33:53;99181.00;;;-1.66;81.55
54806;BME280;62866;55.776;37.496;2023-02-28T12:36:22;99182.53;;;-1.63;81.39
54806;BME280;62866;55.776;37.496;2023-02-28T12:38:56;99178.97;;;-1.62;81.57
54806;BME280;62866;55.776;37.496;2023-02-28T12:41:40;99162.66;;;-1.66;81.34
54806;BME280;62866;55.776;37.496;2023-02-28T12:46:55;99158.78;;;-1.82;81.69
54806;BME280;62866;55.776;37.496;2023-02-28T12:49:41;99162.94;;;-1.80;81.79
54806;BME280;62866;55.776;37.496;2023-02-28T12:52:11;99150.28;;;-1.75;82.30
54806;BME280;62866;55.776;37.496;2023-02-28T12:54:52;99141.22;;;-1.71;82.72
54806;BME280;62866;55.776;37.496;2023-02-28T13:00:22;99109.91;;;-1.72;82.45
54806;BME280;62866;55.776;37.496;2023-02-28T13:11:32;99125.78;;;-1.53;82.59
54806;BME280;62866;55.776;37.496;2023-02-28T13:14:02;99105.03;;;-1.56;81.94
54806;BME280;62866;55.776;37.496;2023-02-28T13:16:28;99106.13;;;-1.59;82.48
54806;BME280;62866;55.776;37.496;2023-02-28T13:19:09;99101.47;;;-1.55;82.09
54806;BME280;62866;55.776;37.496;2023-02-28T13:21:43;99108.63;;;-1.57;82.03
54806;BME280;62866;55.776;37.496;2023-02-28T13:24:10;99101.69;;;-1.68;81.76
54806;BME280;62866;55.776;37.496;2023-02-28T13:31:27;99105.09;;;-1.67;83.07
54806;BME280;62866;55.776;37.496;2023-02-28T13:36:27;99093.84;;;-1.58;82.59
54806;BME280;62866;55.776;37.496;2023-02-28T13:38:56;99074.81;;;-1.60;82.73
54806;BME280;62866;55.776;37.496;2023-02-28T13:54:39;99065.78;;;-1.46;82.65
54806;BME280;62866;55.776;37.496;2023-02-28T13:57:25;99076.53;;;-1.49;82.10
54806;BME280;62866;55.776;37.496;2023-02-28T14:05:24;99067.44;;;-1.45;82.90
54806;BME280;62866;55.776;37.496;2023-02-28T14:07:53;99077.69;;;-1.42;82.42
54806;BME280;62866;55.776;37.496;2023-02-28T14:10:30;99079.31;;;-1.41;82.49
54806;BME280;62866;55.776;37.496;2023-02-28T14:15:49;99081.63;;;-1.48;83.53
54806;BME280;62866;55.776;37.496;2023-02-28T14:18:25;99070.50;;;-1.40;83.69
54806;BME280;62866;55.776;37.496;2023-02-28T14:20:57;99066.09;;;-1.40;83.65
54806;BME280;62866;55.776;37.496;2023-02-28T14:26:31;99057.91;;;-1.26;83.28
54806;BME280;62866;55.776;37.496;2023-02-28T14:29:08;99052.81;;;-1.18;83.20
54806;BME280;62866;55.776;37.496;2023-02-28T14:34:37;99023.94;;;-1.27;83.08
54806;BME280;62866;55.776;37.496;2023-02-28T14:37:05;99028.88;;;-1.24;83.58
54806;BME280;62866;55.776;37.496;2023-02-28T14:39:34;99036.50;;;-1.21;83.72
54806;BME280;62866;55.776;37.496;2023-02-28T14:42:02;99032.47;;;-1.25;84.30
54806;BME280;62866;55.776;37.496;2023-02-28T14:44:30;99026.94;;;-1.32;84.91
54806;BME280;62866;55.776;37.496;2023-02-28T14:47:00;99031.34;;;-1.32;85.24
54806;BME280;62866;55.776;37.496;2023-02-28T14:49:35;99039.63;;;-1.37;85.90
54806;BME280;62866;55.776;37.496;2023-02-28T14:54:31;99010.47;;;-1.43;86.30
54806;BME280;62866;55.776;37.496;2023-02-28T14:56:57;99012.00;;;-1.41;87.00
54806;BME280;62866;55.776;37.496;2023-02-28T14:59:25;99014.34;;;-1.38;87.66
54806;BME280;62866;55.776;37.496;2023-02-28T15:01:52;99009.78;;;-1.45;88.28
54806;BME280;62866;55.776;37.496;2023-02-28T15:04:26;99031.00;;;-1.48;88.18
54806;BME280;62866;55.776;37.496;2023-02-28T15:07:14;99019.44;;;-1.46;88.89